KLIC

Limon Municipal Airport

Limon, Colorado, USA
METAR KLIC 201955Z AUTO VRB04KT 6SM HZ CLR 21/09 A3026 RMK AO2 SLP192 T02110089
Observed Flight Rules
Aug-20 @ 19:55 UTC (33 minutes ago) Visual Flight Rules
Wind Visibility Clouds Conditions
Variable at 4 knots 6 miles
  • Clear skies
  • Haze
Temperatures Readings
Current 21°C / 70°F
Dewpoint 9°C / 48°F
Humidity 46%
Altimeter 30.26" Hg
Pressure 1019.2 hPa
Elevation 1630
METAR KLIC 201955Z AUTO VRB04KT 6SM HZ CLR 21/09 A3026 RMK AO2 SLP192 T02110089
Observed Flight Rules
Aug-20 @ 19:55 UTC
(33 minutes ago)
VFR
Wind Visibility
Variable at 4 knots 6 miles
Clouds
  • Clear skies
Conditions
  • Haze
Temperature Dewpoint
21°C / 70°F 9°C / 48°F
Humidity Altimeter Pressure
46% 30.26" Hg 1019.2 hPa